Tuesday, January 23, 2018, 7:23 AM EST
Back to Local

KHWV, Shirley Brookhaven Airport

Location: Shirley, NY, United States Lat: 40.817
Local Time: 7:23 AM EST (12:23 GMT) Lon: -72.867
Time Zone: US/Eastern Elev: 82 ft

Show me the last for .
Show Decoded

2018-01-23 07:08 METAR KHWV 231208Z AUTO 16011KT 7SM -RA FEW008 BKN016 OVC043 11/11 A2984 RMK AO2
                 P0001 T01060106 =
2018-01-23 06:38 METAR KHWV 231138Z AUTO 16013G24KT 3SM RA BR FEW009 BKN029 OVC037 11/11 A2987
                 RMK AO2 RAB29 P0005 T01110106 =
2018-01-23 06:23 METAR KHWV 231123Z AUTO 16014KT 10SM BKN029 OVC036 11/10 A2987 RMK AO2 T01110100
                 =
2018-01-23 06:06 METAR KHWV 231106Z AUTO 15008KT 10SM SCT024 BKN036 OVC044 10/10 A2988 RMK AO2
                 T01000100 =
2018-01-23 05:56 METAR KHWV 231056Z AUTO 15007KT 10SM BKN024 OVC038 10/10 A2989 RMK AO2 SLP120
                 T01000100 =
2018-01-23 05:20 METAR KHWV 231020Z AUTO 15007KT 10SM BKN026 10/10 A2990 RMK AO2 T01000100 =
2018-01-23 05:05 METAR KHWV 231005Z AUTO 16008KT 10SM SCT028 SCT036 09/09 A2990 RMK AO2 T00940094
                 =
2018-01-23 04:56 METAR KHWV 230956Z AUTO 15008KT 10SM BKN028 BKN036 10/10 A2990 RMK AO2 PRESFR
                 SLP125 T01000100 =
2018-01-23 04:47 METAR KHWV 230947Z AUTO 16007KT 10SM BKN028 BKN036 09/09 A2992 RMK AO2 T00940094
                 =
2018-01-23 04:08 METAR KHWV 230908Z AUTO 15006KT 5SM BR FEW030 BKN038 08/08 A2994 RMK AO2
                 T00830083 =
2018-01-23 03:56 METAR KHWV 230856Z AUTO 16005KT 2SM BR FEW003 FEW030 OVC038 07/07 A2995 RMK AO2
                 SLP143 T00720072 56034 =
2018-01-23 03:43 METAR KHWV 230843Z AUTO 16004KT 3SM BR SCT003 BKN030 OVC038 08/08 A2996 RMK AO2
                 T00780078 =
2018-01-23 03:15 METAR KHWV 230815Z AUTO 00000KT 4SM BR OVC003 06/06 A2997 RMK AO2 T00610061 =
2018-01-23 02:56 METAR KHWV 230756Z AUTO VRB03KT 3SM BR OVC002 07/07 A2998 RMK AO2 SLP152
                 T00720072 =
2018-01-23 02:26 METAR KHWV 230726Z AUTO 09003KT 1SM BR VV002 05/05 A2999 RMK AO2 T00500050 =
2018-01-23 01:56 METAR KHWV 230656Z AUTO 00000KT 1/2SM FG VV002 06/06 A3001 RMK AO2 SLP162
                 T00560056 =
2018-01-23 01:28 METAR KHWV 230628Z AUTO 00000KT 1/2SM FG VV002 05/05 A3003 RMK AO2 T00500050 =
2018-01-23 01:05 METAR KHWV 230605Z AUTO 00000KT 1/2SM FG VV003 04/04 A3005 RMK AO2 T00440044 =
2018-01-23 00:56 METAR KHWV 230556Z AUTO 00000KT 1/4SM FG VV003 04/04 A3005 RMK AO2 SLP176
                 T00390039 10056 20039 58021 =
2018-01-23 00:49 METAR KHWV 230549Z AUTO 00000KT 1/4SM FG VV002 04/04 A3006 RMK AO2 T00440044 =
2018-01-22 23:56 METAR KHWV 230456Z AUTO 04003KT 1/2SM FG VV002 05/05 A3009 RMK AO2 SLP188
                 T00500050 401110028 =
2018-01-22 23:17 METAR KHWV 230417Z AUTO 00000KT 1/2SM FG VV002 04/04 A3008 RMK AO2 T00440044 =
2018-01-22 22:56 METAR KHWV 230356Z AUTO 00000KT 1/4SM FG VV002 04/04 A3008 RMK AO2 SLP187
                 T00390039 =
2018-01-22 22:49 METAR KHWV 230349Z AUTO 00000KT 1/4SM FG VV002 04/04 A3009 RMK AO2 T00440044 =
2018-01-22 21:56 METAR KHWV 230256Z AUTO 00000KT 3/4SM BR VV002 04/04 A3011 RMK AO2 SLP197
                 T00440044 56015 =
2018-01-22 21:51 METAR KHWV 230251Z AUTO 00000KT 3/4SM BR VV002 04/04 A3012 RMK AO2 =
2018-01-22 20:56 METAR KHWV 230156Z AUTO 00000KT 1 1/4SM BR OVC002 05/05 A3015 RMK AO2 SLP208
                 T00500050 =
2018-01-22 20:43 METAR KHWV 230143Z AUTO 00000KT 1 3/4SM BR OVC002 05/05 A3015 RMK AO2 T00500050
                 =
2018-01-22 20:13 METAR KHWV 230113Z AUTO VRB03KT 2 1/2SM BR OVC002 05/05 A3016 RMK AO2 T00500050
                 =
2018-01-22 19:56 METAR KHWV 230056Z AUTO VRB03KT 3SM BR OVC002 05/05 A3016 RMK AO2 SLP212
                 T00500050 =
2018-01-22 19:40 METAR KHWV 230040Z AUTO VRB04KT 3SM BR OVC002 05/05 A3016 RMK AO2 T00500050 =
2018-01-22 18:56 METAR KHWV 222356Z AUTO VRB03KT 4SM BR OVC003 06/05 A3017 RMK AO2 SLP216 60000
                 T00560050 10111 20056 53001 =
2018-01-22 18:09 METAR KHWV 222309Z AUTO VRB03KT 5SM BR OVC004 06/05 A3017 RMK AO2 T00560050 =
2018-01-22 17:56 METAR KHWV 222256Z AUTO 07004KT 6SM BR OVC005 06/04 A3017 RMK AO2 RAE11 SLP216
                 P0000 T00560044 =
2018-01-22 16:56 METAR KHWV 222156Z AUTO 00000KT 9SM -RA BKN008 OVC070 06/04 A3016 RMK AO2 RAB55
                 SLP214 P0000 T00610044 =
2018-01-22 16:19 METAR KHWV 222119Z AUTO VRB04KT 10SM BKN008 OVC060 08/06 A3016 RMK AO2 CIG
                 007V010 T00780056 =
2018-01-22 15:56 METAR KHWV 222056Z AUTO 00000KT 10SM FEW045 BKN060 OVC100 08/06 A3015 RMK AO2
                 SLP211 T00830056 56004 =
2018-01-22 14:56 METAR KHWV 221956Z AUTO 02005KT 10SM OVC046 09/06 A3016 RMK AO2 SLP211 T00940061
                 =
2018-01-22 13:56 METAR KHWV 221856Z AUTO 00000KT 10SM BKN038 OVC100 11/06 A3015 RMK AO2 SLP211
                 T01110056 =
2018-01-22 12:56 METAR KHWV 221756Z AUTO 00000KT 10SM FEW039 OVC100 11/06 A3017 RMK AO2 SLP215
                 T01060061 10106 20050 58016 =
2018-01-22 11:56 METAR KHWV 221656Z AUTO 35004KT 10SM OVC100 09/06 A3018 RMK AO2 SLP221 T00940061
                 =
2018-01-22 10:56 METAR KHWV 221556Z AUTO 00000KT 10SM BKN036 OVC100 09/06 A3020 RMK AO2 SLP226
                 T00890056 =
2018-01-22 09:56 METAR KHWV 221456Z AUTO 00000KT 10SM FEW029 OVC037 08/06 A3021 RMK AO2 SLP231
                 T00780061 51014 =
2018-01-22 08:56 METAR KHWV 221356Z AUTO 00000KT 5SM BR BKN032 OVC095 07/07 A3021 RMK AO2 SLP229
                 T00670067 $ =
2018-01-22 07:56 METAR KHWV 221256Z AUTO 13004KT 5SM BR FEW037 OVC050 05/05 A3018 RMK AO2 SLP219
                 T00500050 $ =

Support USWX by starting your Amazon purchase here.